sensor_id;sensor_type;location;lat;lon;timestamp;pressure;altitude;pressure_sealevel;temperature;humidity
51359;BME280;37448;51.588;7.248;2023-03-14T00:01:00;98483.91;;;9.84;79.96
51359;BME280;37448;51.588;7.248;2023-03-14T00:03:07;98484.91;;;9.81;80.58
51359;BME280;37448;51.588;7.248;2023-03-14T00:05:08;98479.63;;;9.83;79.21
51359;BME280;37448;51.588;7.248;2023-03-14T00:07:10;98470.28;;;9.79;81.38
51359;BME280;37448;51.588;7.248;2023-03-14T00:09:11;98484.16;;;9.79;81.54
51359;BME280;37448;51.588;7.248;2023-03-14T00:11:17;98489.47;;;9.77;78.65
51359;BME280;37448;51.588;7.248;2023-03-14T00:13:18;98479.94;;;9.76;80.40
51359;BME280;37448;51.588;7.248;2023-03-14T00:15:19;98466.13;;;9.74;81.98
51359;BME280;37448;51.588;7.248;2023-03-14T00:17:19;98453.28;;;9.71;80.40
51359;BME280;37448;51.588;7.248;2023-03-14T00:19:20;98444.69;;;9.69;80.73
51359;BME280;37448;51.588;7.248;2023-03-14T00:21:20;98432.69;;;9.67;80.74
51359;BME280;37448;51.588;7.248;2023-03-14T00:23:20;98426.03;;;9.61;82.29
51359;BME280;37448;51.588;7.248;2023-03-14T00:25:21;98418.28;;;9.59;83.37
51359;BME280;37448;51.588;7.248;2023-03-14T00:27:21;98410.63;;;9.56;81.46
51359;BME280;37448;51.588;7.248;2023-03-14T00:29:22;98412.25;;;9.59;79.96
51359;BME280;37448;51.588;7.248;2023-03-14T00:31:22;98408.88;;;9.57;81.57
51359;BME280;37448;51.588;7.248;2023-03-14T00:33:23;98396.78;;;9.56;82.50
51359;BME280;37448;51.588;7.248;2023-03-14T00:35:23;98413.56;;;9.50;80.81
51359;BME280;37448;51.588;7.248;2023-03-14T00:37:24;98413.56;;;9.50;80.33
51359;BME280;37448;51.588;7.248;2023-03-14T00:39:24;98424.81;;;9.51;82.84
51359;BME280;37448;51.588;7.248;2023-03-14T00:41:24;98442.06;;;9.53;79.93
51359;BME280;37448;51.588;7.248;2023-03-14T00:43:25;98449.88;;;9.53;79.40
51359;BME280;37448;51.588;7.248;2023-03-14T00:45:25;98451.50;;;9.56;82.94
51359;BME280;37448;51.588;7.248;2023-03-14T00:47:26;98468.72;;;9.58;81.00
51359;BME280;37448;51.588;7.248;2023-03-14T00:49:27;98460.66;;;9.63;80.50
51359;BME280;37448;51.588;7.248;2023-03-14T00:51:27;98463.03;;;9.68;80.72
51359;BME280;37448;51.588;7.248;2023-03-14T00:53:29;98448.38;;;9.65;79.92
51359;BME280;37448;51.588;7.248;2023-03-14T00:55:30;98456.97;;;9.67;80.50
51359;BME280;37448;51.588;7.248;2023-03-14T00:57:30;98455.28;;;9.66;80.29
51359;BME280;37448;51.588;7.248;2023-03-14T00:59:31;98457.81;;;9.68;80.82
51359;BME280;37448;51.588;7.248;2023-03-14T01:01:31;98456.63;;;9.73;79.11
51359;BME280;37448;51.588;7.248;2023-03-14T01:03:32;98459.69;;;9.82;78.67
51359;BME280;37448;51.588;7.248;2023-03-14T01:05:32;98448.59;;;9.78;79.54
51359;BME280;37448;51.588;7.248;2023-03-14T01:07:33;98472.44;;;9.70;82.60
51359;BME280;37448;51.588;7.248;2023-03-14T01:09:33;98461.75;;;9.59;84.17
51359;BME280;37448;51.588;7.248;2023-03-14T01:11:34;98481.53;;;9.45;85.69
51359;BME280;37448;51.588;7.248;2023-03-14T01:13:35;98478.56;;;9.36;86.88
51359;BME280;37448;51.588;7.248;2023-03-14T01:15:37;98483.38;;;9.26;87.09
51359;BME280;37448;51.588;7.248;2023-03-14T01:17:38;98482.94;;;9.17;88.24
51359;BME280;37448;51.588;7.248;2023-03-14T01:19:39;98492.75;;;9.12;88.75
51359;BME280;37448;51.588;7.248;2023-03-14T01:21:40;98488.13;;;9.00;88.80
51359;BME280;37448;51.588;7.248;2023-03-14T01:23:40;98493.03;;;8.88;88.81
51359;BME280;37448;51.588;7.248;2023-03-14T01:25:41;98492.25;;;8.86;89.86
51359;BME280;37448;51.588;7.248;2023-03-14T01:27:43;98492.25;;;8.86;89.84
51359;BME280;37448;51.588;7.248;2023-03-14T01:29:43;98478.75;;;8.78;90.43
51359;BME280;37448;51.588;7.248;2023-03-14T01:31:44;98485.81;;;8.76;90.54
51359;BME280;37448;51.588;7.248;2023-03-14T01:33:45;98483.59;;;8.68;90.63
51359;BME280;37448;51.588;7.248;2023-03-14T01:35:49;98487.38;;;8.61;90.59
51359;BME280;37448;51.588;7.248;2023-03-14T01:37:50;98485.03;;;8.56;90.82
51359;BME280;37448;51.588;7.248;2023-03-14T01:39:54;98480.72;;;8.55;91.14
51359;BME280;37448;51.588;7.248;2023-03-14T01:41:55;98478.34;;;8.51;91.15
51359;BME280;37448;51.588;7.248;2023-03-14T01:43:55;98476.69;;;8.48;91.48
51359;BME280;37448;51.588;7.248;2023-03-14T01:48:07;98458.78;;;8.42;91.43
51359;BME280;37448;51.588;7.248;2023-03-14T01:50:09;98464.91;;;8.41;91.92
51359;BME280;37448;51.588;7.248;2023-03-14T01:52:16;98468.41;;;8.40;92.46
51359;BME280;37448;51.588;7.248;2023-03-14T01:54:24;98473.81;;;8.35;92.54
51359;BME280;37448;51.588;7.248;2023-03-14T01:56:25;98461.69;;;8.36;91.86
51359;BME280;37448;51.588;7.248;2023-03-14T01:58:27;98451.44;;;8.32;92.07
51359;BME280;37448;51.588;7.248;2023-03-14T02:00:28;98462.81;;;8.30;92.29
51359;BME280;37448;51.588;7.248;2023-03-14T02:02:29;98451.69;;;8.26;92.16
51359;BME280;37448;51.588;7.248;2023-03-14T02:04:32;98460.56;;;8.22;91.73
51359;BME280;37448;51.588;7.248;2023-03-14T02:06:45;98454.44;;;8.23;92.24
51359;BME280;37448;51.588;7.248;2023-03-14T02:08:47;98458.03;;;8.21;92.33
51359;BME280;37448;51.588;7.248;2023-03-14T02:10:53;98451.97;;;8.20;92.80
51359;BME280;37448;51.588;7.248;2023-03-14T02:13:07;98445.25;;;8.16;92.23
51359;BME280;37448;51.588;7.248;2023-03-14T02:15:33;98445.25;;;8.16;93.24
51359;BME280;37448;51.588;7.248;2023-03-14T02:17:40;98448.75;;;8.15;92.63
51359;BME280;37448;51.588;7.248;2023-03-14T02:22:29;98446.00;;;8.18;92.58
51359;BME280;37448;51.588;7.248;2023-03-14T02:27:11;98446.78;;;8.20;93.06
51359;BME280;37448;51.588;7.248;2023-03-14T02:29:16;98443.41;;;8.18;93.14
51359;BME280;37448;51.588;7.248;2023-03-14T02:31:17;98438.94;;;8.22;93.74
51359;BME280;37448;51.588;7.248;2023-03-14T02:33:19;98445.09;;;8.19;93.17
51359;BME280;37448;51.588;7.248;2023-03-14T02:35:29;98447.84;;;8.16;92.50
51359;BME280;37448;51.588;7.248;2023-03-14T02:37:37;98446.94;;;8.17;92.39
51359;BME280;37448;51.588;7.248;2023-03-14T02:39:43;98445.09;;;8.19;92.62
51359;BME280;37448;51.588;7.248;2023-03-14T02:41:44;98447.00;;;8.15;91.95
51359;BME280;37448;51.588;7.248;2023-03-14T02:43:46;98444.34;;;8.17;91.79
51359;BME280;37448;51.588;7.248;2023-03-14T02:45:50;98444.25;;;8.18;92.83
51359;BME280;37448;51.588;7.248;2023-03-14T02:47:58;98428.59;;;8.20;92.31
51359;BME280;37448;51.588;7.248;2023-03-14T02:50:05;98454.59;;;8.20;91.19
51359;BME280;37448;51.588;7.248;2023-03-14T02:52:06;98448.75;;;8.15;90.93
51359;BME280;37448;51.588;7.248;2023-03-14T02:54:08;98441.72;;;8.17;91.18
51359;BME280;37448;51.588;7.248;2023-03-14T02:56:09;98446.94;;;8.17;92.00
51359;BME280;37448;51.588;7.248;2023-03-14T02:58:11;98448.47;;;8.21;92.25
51359;BME280;37448;51.588;7.248;2023-03-14T03:00:11;98445.94;;;8.19;91.10
51359;BME280;37448;51.588;7.248;2023-03-14T03:02:12;98443.25;;;8.21;91.79
51359;BME280;37448;51.588;7.248;2023-03-14T03:04:13;98435.63;;;8.18;90.84
51359;BME280;37448;51.588;7.248;2023-03-14T03:06:13;98429.50;;;8.19;91.60
51359;BME280;37448;51.588;7.248;2023-03-14T03:08:13;98437.25;;;8.21;91.21
51359;BME280;37448;51.588;7.248;2023-03-14T03:10:14;98424.34;;;8.17;92.05
51359;BME280;37448;51.588;7.248;2023-03-14T03:12:15;98429.78;;;8.13;90.92
51359;BME280;37448;51.588;7.248;2023-03-14T03:14:15;98421.34;;;8.08;91.10
51359;BME280;37448;51.588;7.248;2023-03-14T03:16:16;98423.16;;;8.05;89.84
51359;BME280;37448;51.588;7.248;2023-03-14T03:18:16;98418.06;;;8.04;90.58
51359;BME280;37448;51.588;7.248;2023-03-14T03:20:17;98411.38;;;7.98;90.79
51359;BME280;37448;51.588;7.248;2023-03-14T03:22:17;98402.81;;;7.96;91.25
51359;BME280;37448;51.588;7.248;2023-03-14T03:24:18;98399.44;;;7.94;90.34
51359;BME280;37448;51.588;7.248;2023-03-14T03:26:18;98401.47;;;7.87;89.84
51359;BME280;37448;51.588;7.248;2023-03-14T03:28:19;98399.75;;;7.88;90.49
51359;BME280;37448;51.588;7.248;2023-03-14T03:30:20;98404.28;;;7.83;90.40
51359;BME280;37448;51.588;7.248;2023-03-14T03:32:22;98401.78;;;7.81;91.79
51359;BME280;37448;51.588;7.248;2023-03-14T03:34:22;98395.81;;;7.79;90.20
51359;BME280;37448;51.588;7.248;2023-03-14T03:36:26;98394.03;;;7.80;90.51
51359;BME280;37448;51.588;7.248;2023-03-14T03:38:26;98382.81;;;7.79;89.76
51359;BME280;37448;51.588;7.248;2023-03-14T03:40:28;98406.06;;;7.82;90.90
51359;BME280;37448;51.588;7.248;2023-03-14T03:42:29;98400.84;;;7.82;90.70
51359;BME280;37448;51.588;7.248;2023-03-14T03:44:29;98405.09;;;7.85;90.67
51359;BME280;37448;51.588;7.248;2023-03-14T03:46:30;98396.38;;;7.86;90.40
51359;BME280;37448;51.588;7.248;2023-03-14T03:48:31;98410.91;;;7.90;90.41
51359;BME280;37448;51.588;7.248;2023-03-14T03:50:31;98399.59;;;7.91;90.81
51359;BME280;37448;51.588;7.248;2023-03-14T03:52:31;98400.38;;;7.93;90.71
51359;BME280;37448;51.588;7.248;2023-03-14T03:54:32;98394.25;;;7.94;91.44
51359;BME280;37448;51.588;7.248;2023-03-14T03:56:33;98407.31;;;7.93;90.97
51359;BME280;37448;51.588;7.248;2023-03-14T03:58:34;98401.13;;;7.95;91.40
51359;BME280;37448;51.588;7.248;2023-03-14T04:00:36;98395.06;;;7.95;91.55
51359;BME280;37448;51.588;7.248;2023-03-14T04:02:36;98395.16;;;7.93;90.07
51359;BME280;37448;51.588;7.248;2023-03-14T04:04:37;98392.47;;;7.95;91.39
51359;BME280;37448;51.588;7.248;2023-03-14T04:06:38;98403.59;;;7.98;90.89
51359;BME280;37448;51.588;7.248;2023-03-14T04:08:39;98401.84;;;7.99;90.61
51359;BME280;37448;51.588;7.248;2023-03-14T04:10:42;98404.34;;;8.00;89.19
51359;BME280;37448;51.588;7.248;2023-03-14T04:12:51;98411.09;;;8.04;91.44
51359;BME280;37448;51.588;7.248;2023-03-14T04:14:56;98409.25;;;8.07;90.79
51359;BME280;37448;51.588;7.248;2023-03-14T04:16:57;98409.16;;;8.10;91.65
51359;BME280;37448;51.588;7.248;2023-03-14T04:18:57;98411.75;;;8.10;91.45
51359;BME280;37448;51.588;7.248;2023-03-14T04:20:58;98411.81;;;8.08;90.86
51359;BME280;37448;51.588;7.248;2023-03-14T04:23:05;98407.47;;;8.09;91.51
51359;BME280;37448;51.588;7.248;2023-03-14T04:25:06;98410.81;;;8.11;91.53
51359;BME280;37448;51.588;7.248;2023-03-14T04:27:11;98402.25;;;8.09;92.02
51359;BME280;37448;51.588;7.248;2023-03-14T04:29:12;98409.19;;;8.08;91.91
51359;BME280;37448;51.588;7.248;2023-03-14T04:31:16;98402.38;;;8.05;90.68
51359;BME280;37448;51.588;7.248;2023-03-14T04:33:18;98399.78;;;8.05;90.20
51359;BME280;37448;51.588;7.248;2023-03-14T04:35:26;98402.38;;;8.05;90.26
51359;BME280;37448;51.588;7.248;2023-03-14T04:37:33;98401.41;;;8.08;90.58
51359;BME280;37448;51.588;7.248;2023-03-14T04:39:33;98391.91;;;8.07;90.90
51359;BME280;37448;51.588;7.248;2023-03-14T04:41:44;98404.84;;;8.09;91.49
51359;BME280;37448;51.588;7.248;2023-03-14T04:43:45;98400.63;;;8.06;90.98
51359;BME280;37448;51.588;7.248;2023-03-14T04:45:47;98396.34;;;8.05;90.80
51359;BME280;37448;51.588;7.248;2023-03-14T04:47:48;98396.50;;;8.02;90.80
51359;BME280;37448;51.588;7.248;2023-03-14T04:49:51;98388.00;;;7.98;91.67
51359;BME280;37448;51.588;7.248;2023-03-14T04:51:52;98388.13;;;7.95;91.75
51359;BME280;37448;51.588;7.248;2023-03-14T04:53:54;98371.22;;;7.86;90.75
51359;BME280;37448;51.588;7.248;2023-03-14T04:55:55;98371.31;;;7.85;92.51
51359;BME280;37448;51.588;7.248;2023-03-14T04:57:58;98361.88;;;7.82;92.69
51359;BME280;37448;51.588;7.248;2023-03-14T04:59:59;98375.84;;;7.80;92.70
51359;BME280;37448;51.588;7.248;2023-03-14T05:02:31;98370.22;;;7.70;93.01
51359;BME280;37448;51.588;7.248;2023-03-14T05:05:01;98379.16;;;7.64;92.79
51359;BME280;37448;51.588;7.248;2023-03-14T05:07:21;98375.13;;;7.57;92.87
51359;BME280;37448;51.588;7.248;2023-03-14T05:09:37;98372.53;;;7.57;93.14
51359;BME280;37448;51.588;7.248;2023-03-14T05:11:56;98373.59;;;7.53;93.09
51359;BME280;37448;51.588;7.248;2023-03-14T05:14:15;98372.97;;;7.47;93.51
51359;BME280;37448;51.588;7.248;2023-03-14T05:16:36;98368.97;;;7.40;93.75
51359;BME280;37448;51.588;7.248;2023-03-14T05:19:01;98372.47;;;7.39;94.51
51359;BME280;37448;51.588;7.248;2023-03-14T05:21:16;98361.38;;;7.36;94.23
51359;BME280;37448;51.588;7.248;2023-03-14T05:23:23;98353.91;;;7.28;94.91
51359;BME280;37448;51.588;7.248;2023-03-14T05:25:46;98353.78;;;7.31;94.56
51359;BME280;37448;51.588;7.248;2023-03-14T05:27:59;98354.69;;;7.30;94.63
51359;BME280;37448;51.588;7.248;2023-03-14T05:30:15;98351.19;;;7.31;94.68
51359;BME280;37448;51.588;7.248;2023-03-14T05:32:36;98350.56;;;7.26;94.95
51359;BME280;37448;51.588;7.248;2023-03-14T05:34:57;98352.38;;;7.24;95.14
51359;BME280;37448;51.588;7.248;2023-03-14T05:37:18;98343.81;;;7.22;95.27
51359;BME280;37448;51.588;7.248;2023-03-14T05:39:31;98345.50;;;7.23;95.54
51359;BME280;37448;51.588;7.248;2023-03-14T05:41:50;98341.94;;;7.25;95.76
51359;BME280;37448;51.588;7.248;2023-03-14T05:43:51;98334.34;;;7.21;95.81
51359;BME280;37448;51.588;7.248;2023-03-14T05:46:14;98338.63;;;7.22;96.39
51359;BME280;37448;51.588;7.248;2023-03-14T05:48:35;98334.19;;;7.24;96.67
51359;BME280;37448;51.588;7.248;2023-03-14T05:50:44;98335.94;;;7.23;96.43
51359;BME280;37448;51.588;7.248;2023-03-14T05:52:55;98336.81;;;7.24;96.67
51359;BME280;37448;51.588;7.248;2023-03-14T05:55:02;98332.31;;;7.27;96.91
51359;BME280;37448;51.588;7.248;2023-03-14T05:57:14;98330.69;;;7.25;96.97
51359;BME280;37448;51.588;7.248;2023-03-14T05:59:26;98326.41;;;7.24;96.95
51359;BME280;37448;51.588;7.248;2023-03-14T06:01:49;98328.09;;;7.25;97.29
51359;BME280;37448;51.588;7.248;2023-03-14T06:03:54;98330.69;;;7.25;97.51
51359;BME280;37448;51.588;7.248;2023-03-14T06:05:54;98325.50;;;7.25;97.42
51359;BME280;37448;51.588;7.248;2023-03-14T06:07:56;98335.84;;;7.26;97.46
51359;BME280;37448;51.588;7.248;2023-03-14T06:09:57;98324.59;;;7.26;97.59
51359;BME280;37448;51.588;7.248;2023-03-14T06:11:59;98333.16;;;7.28;97.88
51359;BME280;37448;51.588;7.248;2023-03-14T06:14:00;98327.97;;;7.28;97.86
51359;BME280;37448;51.588;7.248;2023-03-14T06:16:00;98332.19;;;7.30;97.58
51359;BME280;37448;51.588;7.248;2023-03-14T06:18:01;98328.09;;;7.25;97.72
51359;BME280;37448;51.588;7.248;2023-03-14T06:20:02;98331.47;;;7.27;97.46
51359;BME280;37448;51.588;7.248;2023-03-14T06:22:04;98335.56;;;7.32;97.62
51359;BME280;37448;51.588;7.248;2023-03-14T06:24:07;98332.88;;;7.34;98.09
51359;BME280;37448;51.588;7.248;2023-03-14T06:26:14;98335.47;;;7.34;97.62
51359;BME280;37448;51.588;7.248;2023-03-14T06:28:14;98340.59;;;7.36;98.11
51359;BME280;37448;51.588;7.248;2023-03-14T06:30:15;98330.94;;;7.39;97.98
51359;BME280;37448;51.588;7.248;2023-03-14T06:32:16;98337.81;;;7.40;98.21
51359;BME280;37448;51.588;7.248;2023-03-14T06:34:17;98335.13;;;7.42;98.54
51359;BME280;37448;51.588;7.248;2023-03-14T06:36:17;98333.28;;;7.44;98.65
51359;BME280;37448;51.588;7.248;2023-03-14T06:38:20;98332.53;;;7.42;98.03
51359;BME280;37448;51.588;7.248;2023-03-14T06:40:21;98339.19;;;7.47;98.28
51359;BME280;37448;51.588;7.248;2023-03-14T06:42:43;98331.41;;;7.47;98.80
51359;BME280;37448;51.588;7.248;2023-03-14T06:44:44;98334.94;;;7.46;98.43
51359;BME280;37448;51.588;7.248;2023-03-14T06:46:44;98329.53;;;7.51;98.61
51359;BME280;37448;51.588;7.248;2023-03-14T06:48:44;98332.94;;;7.52;98.36
51359;BME280;37448;51.588;7.248;2023-03-14T06:50:47;98332.19;;;7.50;98.36
51359;BME280;37448;51.588;7.248;2023-03-14T06:52:48;98331.91;;;7.56;98.90
51359;BME280;37448;51.588;7.248;2023-03-14T06:54:52;98333.31;;;7.63;98.72
51359;BME280;37448;51.588;7.248;2023-03-14T06:56:55;98341.88;;;7.65;99.03
51359;BME280;37448;51.588;7.248;2023-03-14T06:58:55;98336.59;;;7.67;98.37
51359;BME280;37448;51.588;7.248;2023-03-14T07:00:58;98343.28;;;7.72;98.52
51359;BME280;37448;51.588;7.248;2023-03-14T07:03:03;98338.22;;;7.69;98.58
51359;BME280;37448;51.588;7.248;2023-03-14T07:05:07;98340.53;;;7.75;98.59
51359;BME280;37448;51.588;7.248;2023-03-14T07:07:10;98330.28;;;7.72;98.72
51359;BME280;37448;51.588;7.248;2023-03-14T07:09:11;98343.13;;;7.75;98.75
51359;BME280;37448;51.588;7.248;2023-03-14T07:11:15;98337.00;;;7.76;98.42
51359;BME280;37448;51.588;7.248;2023-03-14T07:13:16;98335.94;;;7.81;98.26
51359;BME280;37448;51.588;7.248;2023-03-14T07:15:28;98349.59;;;7.86;98.91
51359;BME280;37448;51.588;7.248;2023-03-14T07:17:33;98340.75;;;7.90;99.07
51359;BME280;37448;51.588;7.248;2023-03-14T07:19:33;98337.22;;;7.91;98.16
51359;BME280;37448;51.588;7.248;2023-03-14T07:21:34;98338.91;;;7.92;98.29
51359;BME280;37448;51.588;7.248;2023-03-14T07:23:39;98338.75;;;7.95;98.86
51359;BME280;37448;51.588;7.248;2023-03-14T07:25:41;98336.94;;;7.97;98.06
51359;BME280;37448;51.588;7.248;2023-03-14T07:27:43;98343.03;;;7.96;98.01
51359;BME280;37448;51.588;7.248;2023-03-14T07:29:44;98350.38;;;8.05;98.71
51359;BME280;37448;51.588;7.248;2023-03-14T07:31:45;98354.41;;;8.13;99.04
51359;BME280;37448;51.588;7.248;2023-03-14T07:33:46;98339.56;;;8.15;98.82
51359;BME280;37448;51.588;7.248;2023-03-14T07:35:47;98341.56;;;8.10;98.01
51359;BME280;37448;51.588;7.248;2023-03-14T07:37:48;98336.06;;;8.16;98.45
51359;BME280;37448;51.588;7.248;2023-03-14T07:39:50;98347.97;;;8.20;98.65
51359;BME280;37448;51.588;7.248;2023-03-14T07:41:54;98350.63;;;8.18;98.32
51359;BME280;37448;51.588;7.248;2023-03-14T07:44:27;98344.63;;;8.18;98.01
51359;BME280;37448;51.588;7.248;2023-03-14T07:46:27;98349.59;;;8.23;98.36
51359;BME280;37448;51.588;7.248;2023-03-14T07:48:28;98351.34;;;8.22;97.78
51359;BME280;37448;51.588;7.248;2023-03-14T07:50:28;98347.81;;;8.23;98.52
51359;BME280;37448;51.588;7.248;2023-03-14T07:52:29;98357.31;;;8.24;97.76
51359;BME280;37448;51.588;7.248;2023-03-14T07:54:29;98355.47;;;8.26;97.49
51359;BME280;37448;51.588;7.248;2023-03-14T07:56:29;98354.56;;;8.27;97.39
51359;BME280;37448;51.588;7.248;2023-03-14T07:58:30;98356.19;;;8.30;97.98
51359;BME280;37448;51.588;7.248;2023-03-14T08:00:30;98359.59;;;8.30;97.96
51359;BME280;37448;51.588;7.248;2023-03-14T08:02:31;98352.72;;;8.29;97.82
51359;BME280;37448;51.588;7.248;2023-03-14T08:04:32;98356.09;;;8.31;98.18
51359;BME280;37448;51.588;7.248;2023-03-14T08:06:35;98360.41;;;8.32;98.13
51359;BME280;37448;51.588;7.248;2023-03-14T08:08:35;98358.78;;;8.30;98.06
51359;BME280;37448;51.588;7.248;2023-03-14T08:10:36;98354.41;;;8.30;98.11
51359;BME280;37448;51.588;7.248;2023-03-14T08:12:36;98357.94;;;8.29;98.08
51359;BME280;37448;51.588;7.248;2023-03-14T08:14:37;98350.13;;;8.29;98.05
51359;BME280;37448;51.588;7.248;2023-03-14T08:16:37;98361.38;;;8.30;98.14
51359;BME280;37448;51.588;7.248;2023-03-14T08:18:37;98368.22;;;8.32;98.53
51359;BME280;37448;51.588;7.248;2023-03-14T08:20:38;98365.44;;;8.36;98.58
51359;BME280;37448;51.588;7.248;2023-03-14T08:22:38;98361.00;;;8.38;99.07
51359;BME280;37448;51.588;7.248;2023-03-14T08:24:39;98363.63;;;8.38;98.81
51359;BME280;37448;51.588;7.248;2023-03-14T08:26:41;98364.38;;;8.40;99.20
51359;BME280;37448;51.588;7.248;2023-03-14T08:28:41;98368.56;;;8.42;98.83
51359;BME280;37448;51.588;7.248;2023-03-14T08:30:41;98365.97;;;8.42;98.79
51359;BME280;37448;51.588;7.248;2023-03-14T08:32:42;98370.13;;;8.46;98.82
51359;BME280;37448;51.588;7.248;2023-03-14T08:34:42;98367.44;;;8.48;98.56
51359;BME280;37448;51.588;7.248;2023-03-14T08:36:43;98379.41;;;8.52;98.63
51359;BME280;37448;51.588;7.248;2023-03-14T08:38:43;98375.88;;;8.53;98.79
51359;BME280;37448;51.588;7.248;2023-03-14T08:40:44;98368.94;;;8.54;98.47
51359;BME280;37448;51.588;7.248;2023-03-14T08:42:45;98370.56;;;8.56;98.53
51359;BME280;37448;51.588;7.248;2023-03-14T08:44:45;98372.75;;;8.64;98.76
51359;BME280;37448;51.588;7.248;2023-03-14T08:46:46;98374.22;;;8.70;98.35
51359;BME280;37448;51.588;7.248;2023-03-14T08:48:47;98375.53;;;8.79;99.11
51359;BME280;37448;51.588;7.248;2023-03-14T08:50:47;98372.69;;;8.83;98.71
51359;BME280;37448;51.588;7.248;2023-03-14T08:52:48;98384.63;;;8.87;98.75
51359;BME280;37448;51.588;7.248;2023-03-14T08:54:48;98388.06;;;8.88;97.63
51359;BME280;37448;51.588;7.248;2023-03-14T08:56:48;98386.31;;;8.88;98.40
51359;BME280;37448;51.588;7.248;2023-03-14T08:58:49;98386.00;;;8.95;98.04
51359;BME280;37448;51.588;7.248;2023-03-14T09:00:49;98382.31;;;8.99;98.49
51359;BME280;37448;51.588;7.248;2023-03-14T09:02:50;98381.72;;;8.94;98.00
51359;BME280;37448;51.588;7.248;2023-03-14T09:04:50;98377.97;;;8.99;98.44
51359;BME280;37448;51.588;7.248;2023-03-14T09:06:51;98381.56;;;8.97;97.92
51359;BME280;37448;51.588;7.248;2023-03-14T09:08:51;98378.94;;;8.97;98.60
51359;BME280;37448;51.588;7.248;2023-03-14T09:10:52;98375.25;;;9.01;98.78
51359;BME280;37448;51.588;7.248;2023-03-14T09:12:52;98370.31;;;8.96;98.45
51359;BME280;37448;51.588;7.248;2023-03-14T09:14:52;98380.94;;;8.92;97.46
51359;BME280;37448;51.588;7.248;2023-03-14T09:16:53;98397.50;;;8.90;97.59
51359;BME280;37448;51.588;7.248;2023-03-14T09:18:53;98398.56;;;8.86;97.52
51359;BME280;37448;51.588;7.248;2023-03-14T09:20:55;98400.41;;;8.84;97.69
51359;BME280;37448;51.588;7.248;2023-03-14T09:22:55;98400.56;;;8.81;98.29
51359;BME280;37448;51.588;7.248;2023-03-14T09:24:56;98408.50;;;8.78;97.95
51359;BME280;37448;51.588;7.248;2023-03-14T09:26:56;98412.25;;;8.72;98.14
51359;BME280;37448;51.588;7.248;2023-03-14T09:28:57;98427.94;;;8.71;98.64
51359;BME280;37448;51.588;7.248;2023-03-14T09:30:57;98436.81;;;8.67;98.42
51359;BME280;37448;51.588;7.248;2023-03-14T09:32:58;98462.06;;;8.65;98.70
51359;BME280;37448;51.588;7.248;2023-03-14T09:34:59;98483.03;;;8.61;98.73
51359;BME280;37448;51.588;7.248;2023-03-14T09:36:59;98502.38;;;8.56;99.32
51359;BME280;37448;51.588;7.248;2023-03-14T09:39:00;98505.72;;;8.19;96.13
51359;BME280;37448;51.588;7.248;2023-03-14T09:41:03;98511.00;;;7.99;95.41
51359;BME280;37448;51.588;7.248;2023-03-14T09:43:13;98514.22;;;7.85;95.34
51359;BME280;37448;51.588;7.248;2023-03-14T09:45:23;98534.56;;;7.75;95.62
51359;BME280;37448;51.588;7.248;2023-03-14T09:47:26;98541.13;;;7.63;95.68
51359;BME280;37448;51.588;7.248;2023-03-14T09:49:38;98537.34;;;7.50;95.44
51359;BME280;37448;51.588;7.248;2023-03-14T09:51:39;98544.88;;;7.56;96.29
51359;BME280;37448;51.588;7.248;2023-03-14T09:53:46;98553.13;;;7.45;95.73
51359;BME280;37448;51.588;7.248;2023-03-14T09:55:49;98559.38;;;7.41;95.88
51359;BME280;37448;51.588;7.248;2023-03-14T09:57:55;98569.06;;;7.37;95.91
51359;BME280;37448;51.588;7.248;2023-03-14T10:00:00;98574.91;;;7.42;96.50
51359;BME280;37448;51.588;7.248;2023-03-14T10:02:25;98588.91;;;7.38;96.81
51359;BME280;37448;51.588;7.248;2023-03-14T10:04:28;98595.94;;;7.36;96.65
51359;BME280;37448;51.588;7.248;2023-03-14T10:06:31;98600.09;;;7.40;96.92
51359;BME280;37448;51.588;7.248;2023-03-14T10:08:31;98612.50;;;7.32;96.32
51359;BME280;37448;51.588;7.248;2023-03-14T10:10:32;98637.81;;;7.27;95.92
51359;BME280;37448;51.588;7.248;2023-03-14T10:12:36;98641.47;;;7.23;96.64
51359;BME280;37448;51.588;7.248;2023-03-14T10:14:46;98645.13;;;7.17;96.19
51359;BME280;37448;51.588;7.248;2023-03-14T10:16:47;98675.63;;;7.12;96.18
51359;BME280;37448;51.588;7.248;2023-03-14T10:18:48;98683.69;;;7.04;94.97
51359;BME280;37448;51.588;7.248;2023-03-14T10:20:49;98682.25;;;6.97;94.55
51359;BME280;37448;51.588;7.248;2023-03-14T10:22:50;98685.09;;;6.91;95.28
51359;BME280;37448;51.588;7.248;2023-03-14T10:25:03;98703.44;;;6.84;94.52
51359;BME280;37448;51.588;7.248;2023-03-14T10:27:10;98714.06;;;6.78;95.21
51359;BME280;37448;51.588;7.248;2023-03-14T10:29:17;98722.75;;;6.77;94.73
51359;BME280;37448;51.588;7.248;2023-03-14T10:31:18;98728.06;;;6.74;94.82
51359;BME280;37448;51.588;7.248;2023-03-14T10:33:33;98723.78;;;6.73;94.97
51359;BME280;37448;51.588;7.248;2023-03-14T10:35:34;98736.63;;;6.76;95.08
51359;BME280;37448;51.588;7.248;2023-03-14T10:37:35;98742.03;;;6.70;94.65
51359;BME280;37448;51.588;7.248;2023-03-14T10:39:46;98761.09;;;6.69;95.05
51359;BME280;37448;51.588;7.248;2023-03-14T10:41:49;98769.78;;;6.68;95.24
51359;BME280;37448;51.588;7.248;2023-03-14T10:43:53;98783.78;;;6.64;94.59
51359;BME280;37448;51.588;7.248;2023-03-14T10:46:05;98796.13;;;6.55;94.34
51359;BME280;37448;51.588;7.248;2023-03-14T10:50:30;98814.63;;;6.46;92.67
51359;BME280;37448;51.588;7.248;2023-03-14T10:52:31;98825.38;;;6.34;91.93
51359;BME280;37448;51.588;7.248;2023-03-14T10:54:32;98839.44;;;6.26;92.03
51359;BME280;37448;51.588;7.248;2023-03-14T10:56:36;98857.03;;;6.16;91.60
51359;BME280;37448;51.588;7.248;2023-03-14T10:58:41;98862.69;;;6.01;90.53
51359;BME280;37448;51.588;7.248;2023-03-14T11:00:42;98878.31;;;5.98;91.33
51359;BME280;37448;51.588;7.248;2023-03-14T11:03:04;98891.34;;;5.96;91.17
51359;BME280;37448;51.588;7.248;2023-03-14T11:05:25;98914.19;;;6.12;91.27
51359;BME280;37448;51.588;7.248;2023-03-14T11:07:36;98927.97;;;6.14;90.53
51359;BME280;37448;51.588;7.248;2023-03-14T11:09:45;98939.50;;;6.03;89.54
51359;BME280;37448;51.588;7.248;2023-03-14T11:11:48;98967.38;;;5.95;88.75
51359;BME280;37448;51.588;7.248;2023-03-14T11:16:15;98971.47;;;5.72;90.48